Time;durP1;ratioP1;P1;durP2;ratioP2;P2;SDS_P1;SDS_P2;PMS_P1;PMS_P2;Temp;Humidity;BMP_temperature;BMP_pressure;BME280_temperature;BME280_humidity;BME280_pressure;Samples;Min_cycle;Max_cycle;Signal;HPM_P1;HPM_P2
2021/07/08 00:00:25;;;;;;;16.35;8.45;;;;;;;21.53;78.11;95372.22;5086876;28;20051;-67
2021/07/08 00:02:52;;;;;;;9.23;8.32;;;;;;;21.51;78.07;95358.47;5088664;28;20399;-66
2021/07/08 00:05:24;;;;;;;13.05;8.63;;;;;;;21.57;78.56;95361.84;5091051;28;20048;-66
2021/07/08 00:07:51;;;;;;;12.23;8.68;;;;;;;21.51;78.75;95366.44;5091155;28;20043;-66
2021/07/08 00:10:23;;;;;;;9.68;8.48;;;;;;;21.56;78.43;95366.38;5091301;28;20139;-66
2021/07/08 00:12:50;;;;;;;11.88;8.65;;;;;;;21.41;79.64;95369.22;5093550;28;20733;-66
2021/07/08 00:15:20;;;;;;;12.18;9.07;;;;;;;21.36;79.87;95371.94;5088292;28;20127;-66
2021/07/08 00:17:48;;;;;;;13.65;9.18;;;;;;;21.41;79.50;95363.91;5087235;28;20097;-66
2021/07/08 00:20:17;;;;;;;10.35;7.88;;;;;;;21.43;79.20;95371.56;5072085;28;20044;-66
2021/07/08 00:22:44;;;;;;;10.23;8.85;;;;;;;21.36;80.06;95361.34;5091964;28;20040;-66
2021/07/08 00:25:20;;;;;;;9.52;8.55;;;;;;;21.26;80.36;95366.75;5090149;28;20135;-66
2021/07/08 00:27:46;;;;;;;9.63;8.27;;;;;;;21.20;81.05;95366.03;5072740;28;20039;-66
2021/07/08 00:30:14;;;;;;;13.25;8.95;;;;;;;21.15;82.04;95369.53;5090956;28;20039;-66
2021/07/08 00:32:41;;;;;;;9.95;7.57;;;;;;;21.16;81.49;95373.00;5090084;28;20036;-66
2021/07/08 00:35:08;;;;;;;9.77;7.97;;;;;;;21.17;81.46;95375.34;5089736;28;20036;-67
2021/07/08 00:37:35;;;;;;;8.75;7.90;;;;;;;21.14;81.70;95375.91;5086987;28;20439;-67
2021/07/08 00:40:04;;;;;;;11.95;8.38;;;;;;;21.11;82.10;95376.47;5086863;28;20536;-67
2021/07/08 00:42:31;;;;;;;11.73;8.02;;;;;;;21.13;82.22;95379.63;5085723;28;20046;-66
2021/07/08 00:44:58;;;;;;;10.63;8.63;;;;;;;21.14;81.74;95373.28;5086317;28;20028;-67
2021/07/08 00:47:25;;;;;;;11.68;8.88;;;;;;;21.15;81.58;95364.25;5086526;28;20040;-67
2021/07/08 00:49:52;;;;;;;12.02;8.27;;;;;;;21.19;81.13;95367.09;5085672;28;20047;-67
2021/07/08 00:52:18;;;;;;;11.15;9.48;;;;;;;21.18;81.85;95360.25;5087006;28;20040;-67
2021/07/08 00:54:46;;;;;;;9.63;8.63;;;;;;;21.22;81.81;95371.06;5086748;28;20492;-67
2021/07/08 00:57:13;;;;;;;11.45;8.65;;;;;;;21.22;81.50;95365.75;5086865;28;20051;-67
2021/07/08 00:59:44;;;;;;;12.35;8.93;;;;;;;21.26;81.41;95372.06;5086710;28;20059;-66
2021/07/08 01:02:14;;;;;;;14.10;8.88;;;;;;;21.27;81.79;95371.00;5089353;28;20036;-67
2021/07/08 01:04:45;;;;;;;9.93;8.93;;;;;;;21.33;80.97;95372.50;5089898;28;20039;-67
2021/07/08 01:07:18;;;;;;;10.52;9.20;;;;;;;21.36;81.24;95371.94;5089777;28;20455;-66
2021/07/08 01:09:45;;;;;;;12.30;8.68;;;;;;;21.39;81.31;95376.63;5091913;28;20091;-66
2021/07/08 01:12:12;;;;;;;12.93;9.20;;;;;;;21.43;81.43;95382.16;5089517;28;20131;-67
2021/07/08 01:14:39;;;;;;;13.65;9.75;;;;;;;21.12;81.46;95372.78;5089183;28;20043;-66
2021/07/08 01:17:06;;;;;;;12.20;10.30;;;;;;;21.02;82.29;95378.19;5086267;28;20622;-67
2021/07/08 01:19:35;;;;;;;21.10;11.98;;;;;;;20.84;83.46;95381.59;5086056;28;20040;-67
2021/07/08 01:22:04;;;;;;;12.85;10.30;;;;;;;20.65;84.29;95390.22;5086516;28;20043;-66
2021/07/08 01:24:32;;;;;;;16.10;11.75;;;;;;;20.45;86.05;95380.63;5085722;28;20516;-67
2021/07/08 01:26:59;;;;;;;16.55;10.85;;;;;;;20.32;86.69;95387.34;5085250;28;20044;-66
2021/07/08 01:29:28;;;;;;;13.70;11.75;;;;;;;20.09;88.11;95388.88;5089531;28;20408;-66
2021/07/08 01:31:55;;;;;;;14.75;12.05;;;;;;;20.01;88.60;95382.34;5089718;28;20040;-66
2021/07/08 01:34:23;;;;;;;12.90;11.23;;;;;;;19.97;89.57;95397.19;5089210;28;20115;-67
2021/07/08 01:36:49;;;;;;;14.32;12.75;;;;;;;19.92;89.88;95389.28;5087271;28;20059;-67
2021/07/08 01:39:19;;;;;;;16.40;12.25;;;;;;;19.93;89.77;95390.84;5087543;28;20043;-67
2021/07/08 01:41:46;;;;;;;15.57;12.48;;;;;;;19.95;90.20;95396.69;5085006;28;20044;-67
2021/07/08 01:44:13;;;;;;;18.10;12.35;;;;;;;19.96;90.16;95400.88;5084874;28;20051;-67
2021/07/08 01:46:41;;;;;;;13.45;12.07;;;;;;;19.99;89.91;95395.03;5084585;28;20063;-67
2021/07/08 01:49:10;;;;;;;16.15;12.55;;;;;;;20.03;89.96;95396.06;5083627;28;20040;-67
2021/07/08 01:51:37;;;;;;;13.85;12.18;;;;;;;20.00;89.83;95388.69;5086476;28;20047;-66
2021/07/08 01:54:08;;;;;;;14.90;12.13;;;;;;;20.10;88.96;95392.34;5088664;28;20831;-67
2021/07/08 01:56:36;;;;;;;18.25;11.55;;;;;;;20.09;88.42;95388.09;5090123;28;20048;-67
2021/07/08 01:59:04;;;;;;;15.88;11.95;;;;;;;20.13;87.90;95389.13;5069255;28;20032;-67
2021/07/08 02:01:31;;;;;;;12.70;10.95;;;;;;;20.12;87.61;95387.56;5088490;28;20054;-67
2021/07/08 02:03:58;;;;;;;17.08;10.77;;;;;;;20.09;87.83;95388.09;5085116;28;20572;-67
2021/07/08 02:06:25;;;;;;;14.77;11.73;;;;;;;19.96;87.69;95385.00;5086964;28;20798;-67
2021/07/08 02:08:52;;;;;;;20.25;13.02;;;;;;;19.99;87.76;95384.47;5088567;28;20044;-67
2021/07/08 02:11:19;;;;;;;14.80;12.27;;;;;;;19.91;87.35;95382.41;5088539;28;20035;-67
2021/07/08 02:13:46;;;;;;;13.35;11.77;;;;;;;19.94;87.30;95397.72;5088932;28;20478;-67
2021/07/08 02:16:13;;;;;;;13.70;12.30;;;;;;;19.90;87.15;95386.13;5088246;28;20074;-67
2021/07/08 02:18:42;;;;;;;12.95;10.52;;;;;;;19.86;86.76;95390.38;5088913;28;20123;-66
2021/07/08 02:21:10;;;;;;;14.38;11.32;;;;;;;19.87;86.74;95386.69;5088167;28;20040;-67
2021/07/08 02:23:37;;;;;;;13.45;11.68;;;;;;;19.82;86.94;95378.78;5084162;28;20048;-69
2021/07/08 02:26:06;;;;;;;12.80;10.90;;;;;;;19.81;86.93;95385.16;5086847;28;20040;-67
2021/07/08 02:28:33;;;;;;;11.93;10.55;;;;;;;19.76;86.90;95385.19;5088184;28;20044;-67
2021/07/08 02:31:00;;;;;;;13.25;11.80;;;;;;;19.72;86.96;95394.69;5086528;28;20036;-66
2021/07/08 02:33:28;;;;;;;14.30;11.70;;;;;;;19.70;87.09;95391.53;5084842;28;20048;-67
2021/07/08 02:35:55;;;;;;;14.20;11.20;;;;;;;19.58;87.18;95379.44;5086925;28;20032;-67
2021/07/08 02:38:22;;;;;;;16.05;12.23;;;;;;;19.64;87.42;95393.41;5084994;28;20066;-66
2021/07/08 02:40:49;;;;;;;15.07;12.30;;;;;;;19.59;87.49;95391.59;5084934;28;20048;-67
2021/07/08 02:43:16;;;;;;;15.50;12.75;;;;;;;19.56;87.85;95397.44;5084887;28;20044;-67
2021/07/08 02:45:44;;;;;;;14.95;12.45;;;;;;;19.53;88.39;95392.69;5084454;28;20112;-67
2021/07/08 02:48:14;;;;;;;16.45;12.20;;;;;;;19.55;87.94;95395.84;5068638;28;20047;-67
2021/07/08 02:50:42;;;;;;;19.00;12.32;;;;;;;19.55;87.70;95395.84;5083341;28;20044;-66
2021/07/08 02:53:10;;;;;;;14.73;11.32;;;;;;;19.50;87.26;95387.97;5084748;28;20047;-67
2021/07/08 02:55:37;;;;;;;15.48;11.63;;;;;;;19.51;87.38;95405.38;5085026;28;20033;-67
2021/07/08 02:58:04;;;;;;;21.08;11.07;;;;;;;19.49;87.70;95407.50;5085126;28;20501;-66
2021/07/08 03:00:31;;;;;;;17.65;11.23;;;;;;;19.48;88.25;95411.19;5084674;28;20048;-67
2021/07/08 03:02:59;;;;;;;19.55;12.73;;;;;;;19.43;88.34;95408.59;5089251;28;20043;-67
2021/07/08 03:05:27;;;;;;;14.30;11.15;;;;;;;19.35;88.34;95396.75;5073384;28;20048;-66
2021/07/08 03:07:54;;;;;;;14.65;11.65;;;;;;;19.42;87.90;95407.00;5090025;28;20036;-66
2021/07/08 03:10:24;;;;;;;13.25;11.57;;;;;;;19.34;87.97;95404.94;5088859;28;20047;-66
2021/07/08 03:12:52;;;;;;;13.60;12.20;;;;;;;19.31;88.38;95405.50;5088368;28;20044;-67
2021/07/08 03:15:20;;;;;;;21.15;12.27;;;;;;;19.28;88.43;95390.97;5088428;28;20032;-67
2021/07/08 03:17:48;;;;;;;15.52;12.05;;;;;;;19.36;88.73;95410.75;5088176;28;20078;-67
2021/07/08 03:20:17;;;;;;;17.45;12.05;;;;;;;19.35;88.42;95423.16;5087002;28;20043;-67
2021/07/08 03:22:45;;;;;;;21.80;12.75;;;;;;;19.36;88.21;95418.69;5086512;28;20069;-67
2021/07/08 03:25:15;;;;;;;19.48;12.18;;;;;;;19.37;88.34;95421.03;5088350;28;20040;-67
2021/07/08 03:27:43;;;;;;;17.92;12.40;;;;;;;19.23;88.38;95410.28;5086997;28;20501;-67
2021/07/08 03:30:13;;;;;;;19.50;12.52;;;;;;;19.26;88.16;95415.00;5088431;28;20167;-67
2021/07/08 03:32:40;;;;;;;19.75;12.25;;;;;;;19.35;88.31;95431.06;5087227;28;20043;-67
2021/07/08 03:35:09;;;;;;;18.48;12.57;;;;;;;19.26;88.38;95417.66;5091127;28;20064;-66
2021/07/08 03:37:36;;;;;;;15.52;11.70;;;;;;;19.31;89.27;95422.13;5088133;28;20501;-67
2021/07/08 03:40:05;;;;;;;15.80;11.70;;;;;;;19.37;89.44;95436.09;5072607;28;20040;-66
2021/07/08 03:42:34;;;;;;;15.32;11.50;;;;;;;19.32;89.31;95425.53;5087315;28;21956;-67
2021/07/08 03:45:04;;;;;;;22.77;13.05;;;;;;;19.33;89.72;95429.78;5088210;28;20032;-67
2021/07/08 03:47:31;;;;;;;21.88;13.80;;;;;;;19.39;89.53;95433.97;5088401;28;20497;-66
2021/07/08 03:49:58;;;;;;;24.75;12.90;;;;;;;19.46;89.61;95434.47;5089284;28;20075;-67
2021/07/08 03:52:25;;;;;;;20.35;12.05;;;;;;;19.49;89.16;95439.22;5087793;28;20048;-67
2021/07/08 03:54:52;;;;;;;20.00;14.45;;;;;;;19.52;89.03;95438.66;5087600;28;20105;-67
2021/07/08 03:57:19;;;;;;;20.08;13.07;;;;;;;19.49;89.47;95429.41;5087937;28;20042;-67
2021/07/08 03:59:46;;;;;;;20.80;13.23;;;;;;;19.57;89.01;95436.00;5087002;28;20056;-67
2021/07/08 04:02:13;;;;;;;22.70;13.95;;;;;;;19.67;90.62;95441.22;5086609;28;20044;-67
2021/07/08 04:04:41;;;;;;;19.55;13.63;;;;;;;19.71;90.35;95445.97;5090723;28;20044;-67
2021/07/08 04:07:09;;;;;;;20.00;12.98;;;;;;;19.76;90.15;95444.09;5092047;28;20488;-67
2021/07/08 04:09:36;;;;;;;23.40;13.15;;;;;;;19.80;90.61;95433.78;5092159;28;20044;-67
2021/07/08 04:12:03;;;;;;;23.83;13.48;;;;;;;19.83;90.38;95443.81;5091427;28;20055;-67
2021/07/08 04:14:30;;;;;;;25.00;13.90;;;;;;;19.89;90.40;95441.91;5090416;28;20485;-67
2021/07/08 04:16:56;;;;;;;15.52;12.80;;;;;;;19.82;90.69;95426.34;5091749;28;20119;-67
2021/07/08 04:19:23;;;;;;;18.95;13.82;;;;;;;19.94;90.50;95437.38;5090431;28;20528;-67
2021/07/08 04:21:50;;;;;;;16.33;13.23;;;;;;;20.04;90.99;95439.16;5090027;28;20059;-67
2021/07/08 04:24:17;;;;;;;16.50;12.73;;;;;;;20.04;91.37;95439.97;5091987;28;20123;-67
2021/07/08 04:26:44;;;;;;;18.08;13.98;;;;;;;20.12;91.23;95440.44;5093387;28;20047;-67
2021/07/08 04:29:10;;;;;;;17.10;13.70;;;;;;;20.18;91.34;95442.75;5088653;28;20486;-67
2021/07/08 04:31:37;;;;;;;17.60;12.82;;;;;;;20.25;91.33;95450.38;5087380;28;20520;-67
2021/07/08 04:34:05;;;;;;;17.83;13.68;;;;;;;20.24;91.15;95443.53;5087787;28;20040;-67
2021/07/08 04:36:32;;;;;;;18.73;13.18;;;;;;;20.36;90.74;95446.56;5088318;28;20047;-67
2021/07/08 04:38:59;;;;;;;15.93;12.88;;;;;;;20.45;90.61;95454.69;5071494;28;20413;-67
2021/07/08 04:41:25;;;;;;;15.77;12.93;;;;;;;20.43;90.39;95452.31;5090073;28;20047;-67
2021/07/08 04:43:52;;;;;;;14.32;12.80;;;;;;;20.47;90.29;95449.13;5091002;28;20043;-67
2021/07/08 04:46:20;;;;;;;19.27;13.55;;;;;;;20.48;90.29;95448.06;5088169;28;20044;-68
2021/07/08 04:48:46;;;;;;;15.85;13.93;;;;;;;20.54;90.03;95466.25;5089886;28;20093;-67
2021/07/08 04:51:13;;;;;;;15.55;11.80;;;;;;;20.63;89.29;95466.47;5087733;28;20036;-67
2021/07/08 04:53:42;;;;;;;13.85;12.25;;;;;;;20.67;88.88;95462.22;5086737;28;20066;-67
2021/07/08 04:56:09;;;;;;;17.83;12.23;;;;;;;20.63;89.20;95461.19;5086645;28;20040;-67
2021/07/08 04:58:36;;;;;;;16.27;12.07;;;;;;;20.72;87.88;95467.44;5086959;28;20047;-67
2021/07/08 05:01:03;;;;;;;13.48;11.98;;;;;;;20.75;88.43;95469.53;5085498;28;21707;-67
2021/07/08 05:03:30;;;;;;;19.13;12.48;;;;;;;20.76;88.38;95455.25;5086930;28;20055;-66
2021/07/08 05:05:56;;;;;;;20.60;13.20;;;;;;;20.84;88.41;95466.31;5090655;28;20040;-67
2021/07/08 05:08:23;;;;;;;20.25;14.35;;;;;;;20.73;88.36;95455.81;5085853;28;20048;-67
2021/07/08 05:10:51;;;;;;;16.08;13.43;;;;;;;20.89;88.32;95468.91;5084805;28;20044;-66
2021/07/08 05:13:18;;;;;;;16.15;13.30;;;;;;;20.87;88.29;95465.72;5086389;28;20044;-68
2021/07/08 05:15:45;;;;;;;19.30;13.45;;;;;;;20.98;88.17;95472.50;5086735;28;20062;-67
2021/07/08 05:18:12;;;;;;;21.08;13.93;;;;;;;21.07;87.98;95477.94;5086142;28;20040;-67
2021/07/08 05:20:40;;;;;;;17.55;12.65;;;;;;;21.13;87.36;95468.91;5086190;28;20056;-67
2021/07/08 05:23:17;;;;;;;20.95;13.80;;;;;;;21.30;86.69;95474.53;5070710;28;20044;-67
2021/07/08 05:25:45;;;;;;;19.77;12.98;;;;;;;21.36;85.94;95485.84;5090420;28;20036;-67
2021/07/08 05:28:13;;;;;;;23.27;13.00;;;;;;;21.37;85.74;95490.06;5069715;28;20065;-67
2021/07/08 05:30:40;;;;;;;18.35;11.73;;;;;;;21.41;84.66;95477.03;5089102;28;20105;-67
2021/07/08 05:33:07;;;;;;;25.98;13.05;;;;;;;21.50;84.76;95492.06;5090191;28;20509;-68
2021/07/08 05:35:35;;;;;;;21.55;12.15;;;;;;;21.55;84.65;95492.03;5087814;28;20032;-67
2021/07/08 05:38:03;;;;;;;23.13;12.68;;;;;;;21.71;85.38;95500.53;5087437;28;20054;-68
2021/07/08 05:40:29;;;;;;;33.22;14.13;;;;;;;21.83;84.37;95497.47;5068856;28;20044;-67
2021/07/08 05:42:56;;;;;;;21.48;12.93;;;;;;;21.95;84.79;95505.81;5088703;28;20039;-68
2021/07/08 05:45:23;;;;;;;28.40;12.82;;;;;;;22.02;84.04;95499.34;5086829;28;20048;-68
2021/07/08 05:47:50;;;;;;;35.47;12.98;;;;;;;22.18;82.68;95508.66;5083920;28;20040;-67
2021/07/08 05:56:19;;;;;;;25.63;12.93;;;;;;;22.10;82.15;95504.00;5109314;27;20130;-68
2021/07/08 05:58:46;;;;;;;30.30;14.38;;;;;;;22.13;81.96;95490.19;5121671;27;20517;-68
2021/07/08 06:01:12;;;;;;;20.85;12.57;;;;;;;22.21;81.00;95492.16;5121326;27;20051;-69
2021/07/08 06:03:39;;;;;;;23.25;13.23;;;;;;;22.45;81.23;95501.91;5119554;27;20062;-68
2021/07/08 06:06:06;;;;;;;18.08;11.93;;;;;;;22.61;80.94;95502.47;5122044;27;20051;-68
2021/07/08 06:08:33;;;;;;;35.97;12.63;;;;;;;22.78;80.87;95504.56;5124524;27;20046;-68
2021/07/08 06:11:00;;;;;;;14.15;10.73;;;;;;;22.92;78.86;95497.41;5121140;27;20061;-66
2021/07/08 06:13:26;;;;;;;28.25;12.02;;;;;;;23.13;77.97;95505.81;5105113;27;20100;-66
2021/07/08 06:15:53;;;;;;;26.27;14.70;;;;;;;23.27;78.17;95505.84;5123971;27;20121;-65
2021/07/08 06:18:26;;;;;;;23.23;12.40;;;;;;;23.45;77.44;95512.91;5124303;27;20586;-66
2021/07/08 06:20:52;;;;;;;16.10;11.15;;;;;;;23.55;75.15;95511.13;5125164;27;20512;-65
2021/07/08 06:23:20;;;;;;;20.65;12.23;;;;;;;23.55;75.66;95516.47;5124028;27;20129;-66
2021/07/08 06:25:48;;;;;;;29.95;13.40;;;;;;;23.71;76.72;95509.75;5124452;27;20051;-66
2021/07/08 06:28:16;;;;;;;19.30;12.27;;;;;;;23.83;75.60;95510.06;5126651;27;20599;-66
2021/07/08 06:30:44;;;;;;;20.52;12.23;;;;;;;23.89;74.05;95501.97;5126856;27;20062;-65
2021/07/08 06:33:11;;;;;;;22.40;11.52;;;;;;;24.05;73.65;95508.53;5124279;27;20074;-65
2021/07/08 06:35:38;;;;;;;23.58;11.20;;;;;;;24.03;74.13;95506.16;5127028;27;20475;-66
2021/07/08 06:38:05;;;;;;;23.20;11.43;;;;;;;24.20;72.00;95505.53;5125787;27;20039;-66
2021/07/08 06:40:32;;;;;;;20.92;10.98;;;;;;;24.33;71.31;95513.78;5123185;27;20138;-66
2021/07/08 06:43:00;;;;;;;17.52;11.27;;;;;;;24.39;72.34;95512.56;5125915;27;20044;-66
2021/07/08 06:45:28;;;;;;;16.40;10.90;;;;;;;24.64;71.57;95513.06;5121215;27;20069;-65
2021/07/08 06:48:04;;;;;;;15.93;10.20;;;;;;;24.54;71.23;95509.56;5126562;27;20869;-65
2021/07/08 06:50:36;;;;;;;17.23;11.02;;;;;;;24.70;71.03;95506.53;5124447;27;20073;-66
2021/07/08 06:53:04;;;;;;;14.45;9.98;;;;;;;24.78;70.65;95508.47;5125403;27;20603;-65
2021/07/08 06:55:34;;;;;;;17.90;10.35;;;;;;;24.91;69.23;95512.13;5118323;27;20055;-66
2021/07/08 06:58:02;;;;;;;15.25;9.93;;;;;;;24.94;69.48;95506.19;5123323;27;20043;-65
2021/07/08 07:00:34;;;;;;;13.70;10.10;;;;;;;25.04;69.54;95505.13;5129623;27;20057;-66
2021/07/08 07:03:02;;;;;;;19.10;10.07;;;;;;;25.11;69.22;95494.81;5110272;27;20080;-66
2021/07/08 07:05:29;;;;;;;10.98;9.68;;;;;;;25.30;68.71;95503.41;5129268;27;20119;-66
2021/07/08 07:07:56;;;;;;;13.30;9.05;;;;;;;25.51;68.84;95500.16;5115411;27;20122;-66
2021/07/08 07:10:25;;;;;;;10.18;9.10;;;;;;;25.64;66.19;95507.25;5108981;27;20482;-66
2021/07/08 07:12:54;;;;;;;10.80;8.43;;;;;;;25.71;65.40;95507.59;5114952;27;20050;-66
2021/07/08 07:15:24;;;;;;;10.35;8.68;;;;;;;25.71;65.07;95509.44;5114438;27;20039;-65
2021/07/08 07:17:51;;;;;;;8.60;7.72;;;;;;;25.83;66.39;95498.97;5116370;27;20047;-65
2021/07/08 07:20:20;;;;;;;14.45;8.40;;;;;;;26.03;65.73;95507.50;5115446;27;20039;-66
2021/07/08 07:22:48;;;;;;;11.13;8.32;;;;;;;26.09;65.32;95501.69;5112794;27;20032;-66
2021/07/08 07:25:18;;;;;;;12.77;9.30;;;;;;;26.16;64.80;95501.22;5116091;27;20085;-66
2021/07/08 07:27:49;;;;;;;13.77;8.60;;;;;;;26.35;66.54;95498.22;5113493;27;20040;-66
2021/07/08 07:30:20;;;;;;;17.88;9.82;;;;;;;26.51;63.53;95488.63;5110095;27;20075;-66
2021/07/08 07:32:48;;;;;;;10.98;9.27;;;;;;;26.67;62.18;95498.84;5112675;27;20043;-65
2021/07/08 07:35:16;;;;;;;10.00;7.90;;;;;;;26.67;61.56;95498.84;5093116;28;20035;-65
2021/07/08 07:37:42;;;;;;;10.23;8.20;;;;;;;26.60;62.83;95501.97;5112300;27;20043;-66
2021/07/08 07:40:10;;;;;;;14.50;7.95;;;;;;;26.48;61.19;95491.94;5108891;27;20042;-66
2021/07/08 07:42:38;;;;;;;15.85;8.57;;;;;;;26.62;61.12;95501.69;5095126;27;21598;-65
2021/07/08 07:45:07;;;;;;;20.10;7.45;;;;;;;26.92;61.64;95499.09;5114332;27;20036;-65
2021/07/08 07:47:34;;;;;;;10.02;7.25;;;;;;;27.14;59.12;95501.53;5110156;27;20116;-65
2021/07/08 07:50:03;;;;;;;10.93;6.90;;;;;;;27.35;56.72;95511.53;5111887;27;20469;-66
2021/07/08 07:52:30;;;;;;;10.73;7.07;;;;;;;27.46;56.76;95512.78;5109223;27;20058;-66
2021/07/08 07:54:57;;;;;;;12.02;6.97;;;;;;;27.65;59.73;95505.09;5103889;27;20445;-66
2021/07/08 07:57:24;;;;;;;15.65;7.13;;;;;;;27.81;57.24;95501.88;5104384;27;20058;-67
2021/07/08 07:59:50;;;;;;;7.60;6.75;;;;;;;27.90;53.37;95499.94;5106484;27;20040;-66
2021/07/08 08:02:17;;;;;;;12.73;6.38;;;;;;;27.98;52.84;95492.94;5109602;27;20420;-66
2021/07/08 08:10:18;;;;;;;16.02;6.65;;;;;;;28.48;52.09;95502.00;5106926;27;20044;-66
2021/07/08 08:12:44;;;;;;;12.05;7.20;;;;;;;28.73;51.91;95498.31;5109630;27;20421;-67
2021/07/08 08:15:12;;;;;;;13.32;6.75;;;;;;;28.82;51.01;95500.13;5107689;27;20043;-66
2021/07/08 08:17:39;;;;;;;10.93;7.20;;;;;;;28.74;51.10;95491.84;5103905;27;20065;-66
2021/07/08 08:20:19;;;;;;;12.25;7.30;;;;;;;28.89;54.62;95495.00;5105538;28;20573;-66
2021/07/08 08:22:45;;;;;;;9.88;7.10;;;;;;;29.08;52.89;95487.22;5105596;27;20703;-67
2021/07/08 08:25:13;;;;;;;18.15;6.75;;;;;;;29.37;50.66;95488.16;5108204;27;20043;-67
2021/07/08 08:27:40;;;;;;;19.00;8.40;;;;;;;29.46;51.22;95491.53;5104895;28;20048;-66
2021/07/08 08:30:11;;;;;;;10.27;6.90;;;;;;;29.68;50.05;95489.47;5107512;28;20046;-67
2021/07/08 08:32:38;;;;;;;10.77;6.82;;;;;;;30.00;49.12;95492.34;5107774;28;20036;-67
2021/07/08 08:35:05;;;;;;;12.38;6.75;;;;;;;30.18;48.76;95490.97;5107840;27;20063;-67
2021/07/08 08:37:32;;;;;;;11.32;6.75;;;;;;;30.41;50.06;95479.72;5090287;28;20039;-67
2021/07/08 08:40:00;;;;;;;10.45;7.80;;;;;;;30.71;45.10;95493.56;5107490;28;20039;-67
2021/07/08 08:42:27;;;;;;;6.88;6.18;;;;;;;30.86;46.68;95505.47;5088777;28;20419;-67
2021/07/08 08:44:54;;;;;;;7.80;6.50;;;;;;;30.93;46.39;95488.78;5107369;28;20489;-67
2021/07/08 08:47:22;;;;;;;11.00;6.82;;;;;;;31.25;46.03;95500.31;5109130;27;20047;-68
2021/07/08 08:49:53;;;;;;;13.13;7.18;;;;;;;31.09;46.58;95496.84;5107359;28;20038;-67
2021/07/08 08:52:21;;;;;;;7.47;6.47;;;;;;;31.15;47.02;95500.84;5107481;28;20055;-67
2021/07/08 08:54:51;;;;;;;10.77;7.60;;;;;;;31.37;47.73;95494.84;5105252;28;20094;-68
2021/07/08 08:57:18;;;;;;;12.70;7.50;;;;;;;31.61;46.53;95495.81;5104970;28;20496;-68
2021/07/08 08:59:45;;;;;;;9.85;7.90;;;;;;;31.49;44.66;95498.59;5088922;28;20489;-68
2021/07/08 09:02:13;;;;;;;10.48;7.53;;;;;;;31.49;43.26;95503.97;5107269;28;20048;-67
2021/07/08 09:04:41;;;;;;;9.15;8.20;;;;;;;31.23;43.50;95502.59;5105953;28;20050;-67
2021/07/08 09:07:30;;;;;;;17.95;11.20;;;;;;;30.82;46.09;95499.22;5107037;28;20054;-67
2021/07/08 09:09:59;;;;;;;12.98;9.27;;;;;;;30.76;44.59;95500.63;5106424;28;20043;-68
2021/07/08 09:12:26;;;;;;;13.48;8.40;;;;;;;30.62;44.72;95496.41;5105461;27;20044;-67
2021/07/08 09:15:13;;;;;;;13.18;8.27;;;;;;;30.33;45.74;95507.50;5106353;28;20043;-67
2021/07/08 09:17:42;;;;;;;13.35;8.85;;;;;;;30.30;44.45;95501.66;5105812;28;20047;-67
2021/07/08 09:20:12;;;;;;;14.68;10.40;;;;;;;30.42;45.93;95502.78;5106759;28;20046;-67
2021/07/08 09:22:39;;;;;;;14.27;9.23;;;;;;;30.41;45.50;95495.84;5105731;28;20531;-67
2021/07/08 09:25:36;;;;;;;9.73;8.43;;;;;;;30.42;46.41;95503.56;5105986;27;20039;-67
2021/07/08 09:28:20;;;;;;;14.45;8.75;;;;;;;30.35;46.32;95502.59;5089633;28;20421;-67
2021/07/08 09:31:01;;;;;;;14.80;10.32;;;;;;;30.63;45.36;95503.34;5106314;28;20043;-67
2021/07/08 09:33:32;;;;;;;13.73;9.52;;;;;;;30.49;44.40;95500.28;5106374;28;20492;-67
2021/07/08 09:36:08;;;;;;;16.05;9.18;;;;;;;30.69;45.93;95507.34;5105607;28;20367;-67
2021/07/08 09:38:35;;;;;;;9.68;8.65;;;;;;;30.89;45.28;95499.41;5105303;28;20047;-67
2021/07/08 09:41:08;;;;;;;12.68;8.15;;;;;;;31.02;44.59;95508.22;5106708;27;20478;-67
2021/07/08 09:43:37;;;;;;;14.75;8.68;;;;;;;30.45;45.82;95502.06;5106455;28;20043;-67
2021/07/08 09:46:05;;;;;;;12.48;8.20;;;;;;;30.55;48.24;95506.97;5108068;28;20048;-67
2021/07/08 09:48:32;;;;;;;12.48;7.75;;;;;;;30.42;45.43;95502.78;5106692;28;20544;-67
2021/07/08 09:50:59;;;;;;;9.73;8.02;;;;;;;30.30;46.20;95490.91;5106758;28;20044;-69
2021/07/08 09:53:26;;;;;;;9.65;8.32;;;;;;;30.78;47.88;95499.13;5088511;28;20054;-67
2021/07/08 09:58:50;;;;;;;15.88;8.38;;;;;;;32.03;42.71;95500.53;5104726;28;20040;-67
2021/07/08 10:01:20;;;;;;;11.13;7.47;;;;;;;32.54;41.46;95508.53;5105013;28;20039;-67
2021/07/08 10:03:50;;;;;;;10.52;7.93;;;;;;;32.54;39.93;95497.75;5100910;28;20043;-67
2021/07/08 10:06:19;;;;;;;9.43;7.15;;;;;;;32.73;39.99;95488.09;5104383;28;20065;-67
2021/07/08 10:08:47;;;;;;;11.75;6.65;;;;;;;33.14;37.83;95512.72;5106122;28;20118;-67
2021/07/08 10:11:16;;;;;;;7.80;6.80;;;;;;;33.09;39.64;95511.06;5105238;28;20628;-67
2021/07/08 10:13:45;;;;;;;12.02;7.57;;;;;;;32.88;39.72;95511.50;5105650;28;20050;-67
2021/07/08 10:16:14;;;;;;;8.48;7.43;;;;;;;33.21;37.53;95512.84;5103950;28;20056;-67
2021/07/08 10:18:42;;;;;;;9.90;7.35;;;;;;;33.87;35.81;95518.09;5104371;28;20117;-67
2021/07/08 10:21:10;;;;;;;8.27;6.53;;;;;;;33.94;39.06;95509.31;5106322;28;20060;-67
2021/07/08 10:23:38;;;;;;;7.53;6.70;;;;;;;33.89;35.52;95513.13;5106671;28;20766;-67
2021/07/08 10:26:08;;;;;;;10.45;6.55;;;;;;;34.11;37.50;95510.72;5104768;28;20055;-67
2021/07/08 10:28:43;;;;;;;;;;;;;;;34.01;37.63;95514.81;5093026;28;20060;-67
2021/07/08 10:31:14;;;;;;;8.68;6.72;;;;;;;33.92;36.26;95512.38;5103492;28;19919;-66
2021/07/08 10:33:41;;;;;;;9.27;7.40;;;;;;;34.28;34.94;95507.47;5105323;28;20048;-66
2021/07/08 10:36:08;;;;;;;10.55;7.38;;;;;;;34.60;34.63;95507.06;5105500;27;20052;-68
2021/07/08 10:38:38;;;;;;;11.00;6.80;;;;;;;34.32;37.22;95508.28;5107557;28;20047;-67
2021/07/08 10:41:11;;;;;;;7.68;6.82;;;;;;;34.49;36.65;95519.69;5106082;27;20056;-67
2021/07/08 10:43:40;;;;;;;8.13;7.32;;;;;;;34.96;34.68;95507.47;5106841;27;20138;-67
2021/07/08 10:46:35;;;;;;;6.88;6.03;;;;;;;35.14;36.20;95519.22;5110271;27;20059;-66
2021/07/08 10:49:13;;;;;;;9.13;6.93;;;;;;;35.18;36.02;95503.00;5111897;27;20509;-66
2021/07/08 10:51:43;;;;;;;9.55;6.80;;;;;;;35.56;33.83;95507.19;5107826;27;20083;-67
2021/07/08 10:54:29;;;;;;;9.95;7.28;;;;;;;35.80;32.11;95499.66;5088649;28;20052;-66
2021/07/08 10:56:58;;;;;;;10.55;7.35;;;;;;;35.51;32.48;95504.84;5107101;28;20042;-67
2021/07/08 10:59:42;;;;;;;12.85;7.47;;;;;;;34.85;34.46;95500.00;5108068;28;20123;-67
2021/07/08 11:02:47;;;;;;;10.30;7.15;;;;;;;34.64;35.93;95502.47;5107751;28;20043;-67
2021/07/08 11:05:52;;;;;;;7.72;6.68;;;;;;;34.64;35.99;95502.47;5108815;28;20519;-67
2021/07/08 11:08:51;;;;;;;12.43;7.70;;;;;;;35.02;34.90;95495.13;5108646;28;20517;-67
2021/07/08 11:11:21;;;;;;;9.45;7.50;;;;;;;35.35;35.34;95493.50;5108616;28;20046;-67
2021/07/08 11:14:23;;;;;;;10.70;8.00;;;;;;;35.46;35.21;95501.72;5108175;28;20043;-67
2021/07/08 11:16:54;;;;;;;9.88;7.43;;;;;;;35.52;34.80;95500.97;5108591;27;20417;-67
2021/07/08 11:19:22;;;;;;;8.77;7.88;;;;;;;35.34;35.40;95494.66;5108346;28;20420;-66
2021/07/08 11:21:56;;;;;;;9.40;7.43;;;;;;;35.54;33.63;95492.47;5108652;28;20039;-67
2021/07/08 11:24:38;;;;;;;14.00;8.13;;;;;;;35.67;34.35;95490.22;5109157;27;20047;-66
2021/07/08 11:27:07;;;;;;;8.05;7.25;;;;;;;35.80;32.57;95496.94;5107630;28;20036;-67
2021/07/08 11:29:35;;;;;;;14.20;8.00;;;;;;;35.60;32.65;95491.75;5109967;27;20741;-67
2021/07/08 11:32:16;;;;;;;7.40;6.70;;;;;;;35.63;32.93;95494.84;5108376;27;20453;-66
2021/07/08 11:34:53;;;;;;;7.72;7.03;;;;;;;35.91;32.13;95489.63;5107852;27;20043;-66
2021/07/08 11:37:26;;;;;;;11.13;7.43;;;;;;;36.08;32.65;95484.69;5107743;27;20040;-67
2021/07/08 11:39:55;;;;;;;;;;;;;;;36.54;29.45;95494.97;5109121;28;20049;-67
2021/07/08 11:42:24;;;;;;;7.47;6.68;;;;;;;36.60;30.98;95496.13;5108446;28;19924;-67
2021/07/08 11:44:55;;;;;;;7.40;6.70;;;;;;;36.65;29.66;95487.63;5108469;27;20515;-66